Time;durP1;ratioP1;P1;durP2;ratioP2;P2;SDS_P1;SDS_P2;PMS_P1;PMS_P2;Temp;Humidity;BMP_temperature;BMP_pressure;BME280_temperature;BME280_humidity;BME280_pressure;Samples;Min_cycle;Max_cycle;Signal;HPM_P1;HPM_P2
2022/08/22 00:00:28;;;;;;;15.38;13.75;;;;;;;20.78;100.00;99553.28;5106676;28;20040;-68
2022/08/22 00:03:03;;;;;;;16.63;14.88;;;;;;;20.80;100.00;99551.19;5107503;28;20063;-68
2022/08/22 00:05:54;;;;;;;16.02;14.43;;;;;;;20.79;100.00;99552.25;5107290;28;20122;-68
2022/08/22 00:08:44;;;;;;;16.00;14.43;;;;;;;20.79;100.00;99555.00;5076087;28;20491;-68
2022/08/22 00:11:16;;;;;;;16.00;14.30;;;;;;;20.79;100.00;99553.06;5106262;28;20118;-67
2022/08/22 00:13:59;;;;;;;16.20;14.50;;;;;;;20.80;100.00;99545.75;5107083;28;20038;-67
2022/08/22 00:16:48;;;;;;;18.80;14.83;;;;;;;20.81;100.00;99537.34;5105400;28;20486;-67
2022/08/22 00:19:43;;;;;;;15.13;13.52;;;;;;;20.80;100.00;99537.56;5095428;28;20046;-67
2022/08/22 00:22:38;;;;;;;15.52;14.02;;;;;;;20.80;100.00;99532.13;5105663;28;20506;-67
2022/08/22 00:25:06;;;;;;;;;;;;;;;20.77;100.00;99533.41;5069469;28;20039;-67
2022/08/22 00:27:52;;;;;;;14.70;13.20;;;;;;;20.78;100.00;99528.75;5106783;28;19980;-67
2022/08/22 00:30:18;;;;;;;13.27;11.98;;;;;;;20.72;100.00;99518.72;5106723;28;20483;-67
2022/08/22 00:33:02;;;;;;;16.60;14.85;;;;;;;20.75;100.00;99534.66;5107626;28;20031;-67
2022/08/22 00:35:43;;;;;;;17.27;14.30;;;;;;;20.74;100.00;99536.56;5107610;28;20044;-67
2022/08/22 00:38:12;;;;;;;15.60;13.77;;;;;;;20.75;100.00;99548.28;5105783;28;20410;-67
2022/08/22 00:41:17;;;;;;;15.95;13.98;;;;;;;20.74;100.00;99541.16;5091198;28;20063;-67
2022/08/22 00:44:15;;;;;;;16.83;14.60;;;;;;;20.74;100.00;99531.09;5086186;28;20487;-67
2022/08/22 00:47:11;;;;;;;18.95;14.60;;;;;;;20.77;100.00;99538.84;5122081;28;20088;-68
2022/08/22 00:49:57;;;;;;;16.35;14.10;;;;;;;20.78;100.00;99531.50;5107184;28;20072;-67
2022/08/22 00:52:41;;;;;;;15.07;13.15;;;;;;;20.79;100.00;99527.72;5106635;28;20421;-68
2022/08/22 00:55:32;;;;;;;13.32;11.90;;;;;;;20.80;100.00;99523.94;5106439;28;20023;-68
2022/08/22 00:58:00;;;;;;;15.32;13.73;;;;;;;20.78;100.00;99521.44;5107323;28;20040;-68
2022/08/22 01:00:28;;;;;;;15.15;13.55;;;;;;;20.79;100.00;99525.00;5109682;28;20435;-67
2022/08/22 01:03:00;;;;;;;15.90;14.30;;;;;;;20.79;100.00;99528.53;5110865;28;20039;-67
2022/08/22 01:05:44;;;;;;;17.20;14.63;;;;;;;20.79;100.00;99531.28;5110849;28;20084;-67
2022/08/22 01:08:13;;;;;;;16.23;13.88;;;;;;;20.82;100.00;99533.56;5123799;27;20027;-68
2022/08/22 01:11:10;;;;;;;14.05;12.63;;;;;;;20.78;100.00;99523.31;5108896;28;20052;-67
2022/08/22 01:13:57;;;;;;;15.38;13.88;;;;;;;20.83;100.00;99534.41;5109200;28;20702;-68
2022/08/22 01:16:57;;;;;;;14.27;12.85;;;;;;;20.78;100.00;99521.44;5110547;28;20386;-68
2022/08/22 01:19:41;;;;;;;14.90;13.50;;;;;;;20.83;100.00;99526.22;5100057;28;20051;-67
2022/08/22 01:22:21;;;;;;;18.20;12.88;;;;;;;20.84;100.00;99536.06;5109031;28;20490;-67
2022/08/22 01:25:42;;;;;;;14.45;12.68;;;;;;;20.82;100.00;99532.72;5095199;28;20081;-67
2022/08/22 01:28:44;;;;;;;15.13;13.52;;;;;;;20.81;100.00;99536.50;5108654;28;20059;-67
2022/08/22 01:31:15;;;;;;;18.70;14.85;;;;;;;20.78;100.00;99528.75;5098151;28;20039;-67
2022/08/22 01:34:18;;;;;;;18.25;15.43;;;;;;;20.76;100.00;99528.97;5108867;28;20031;-67
2022/08/22 01:37:00;;;;;;;15.90;14.25;;;;;;;20.77;100.00;99525.22;5094693;28;20035;-67
2022/08/22 01:39:40;;;;;;;16.52;14.40;;;;;;;20.76;100.00;99533.63;5109855;28;20050;-68
2022/08/22 01:42:21;;;;;;;17.40;15.43;;;;;;;20.76;100.00;99539.88;5109947;28;20132;-67
2022/08/22 01:45:25;;;;;;;18.05;15.95;;;;;;;20.76;100.00;99539.06;5094932;28;20054;-68
2022/08/22 01:48:15;;;;;;;19.58;16.40;;;;;;;20.76;100.00;99530.91;5078760;27;20042;-68
2022/08/22 01:50:49;;;;;;;18.55;16.58;;;;;;;20.78;100.00;99536.94;5093457;28;20027;-68
2022/08/22 01:53:17;;;;;;;18.00;16.10;;;;;;;20.78;100.00;99537.78;5108200;28;20760;-68
2022/08/22 01:55:43;;;;;;;18.35;16.30;;;;;;;20.78;100.00;99523.31;5110472;28;20482;-68
2022/08/22 01:58:25;;;;;;;17.00;15.20;;;;;;;20.77;100.00;99527.09;5108786;28;20040;-68
2022/08/22 02:00:57;;;;;;;16.50;14.93;;;;;;;20.77;100.00;99524.38;5096226;28;20032;-68
2022/08/22 02:03:30;;;;;;;18.13;16.23;;;;;;;20.75;100.00;99518.28;5110551;27;20031;-68
2022/08/22 02:06:08;;;;;;;19.25;17.25;;;;;;;20.74;100.00;99520.22;5121141;27;20043;-68
2022/08/22 02:08:43;;;;;;;20.65;16.90;;;;;;;20.73;100.00;99521.25;5110243;27;20023;-68
2022/08/22 02:11:29;;;;;;;23.88;18.10;;;;;;;20.76;100.00;99522.72;5109425;28;20077;-68
2022/08/22 02:14:30;;;;;;;19.70;17.60;;;;;;;20.78;100.00;99531.50;5109131;28;20036;-68
2022/08/22 02:17:10;;;;;;;19.38;17.38;;;;;;;20.66;100.00;99509.56;5081031;28;20104;-67
2022/08/22 02:19:56;;;;;;;25.27;18.92;;;;;;;20.76;100.00;99525.44;5110477;28;20907;-68
2022/08/22 02:22:57;;;;;;;19.42;17.38;;;;;;;20.75;100.00;99524.59;5108844;28;20034;-68
2022/08/22 02:25:48;;;;;;;23.05;18.25;;;;;;;20.74;100.00;99519.38;5076848;28;20116;-67
2022/08/22 02:28:28;;;;;;;20.70;18.42;;;;;;;20.73;100.00;99517.69;5071070;28;20505;-66
2022/08/22 02:31:04;;;;;;;23.50;19.98;;;;;;;20.71;100.00;99514.34;5110428;28;20536;-66
2022/08/22 02:33:41;;;;;;;21.25;18.58;;;;;;;20.73;100.00;99523.16;5109740;28;20466;-66
2022/08/22 02:36:23;;;;;;;24.92;20.25;;;;;;;20.65;100.00;99507.03;5110133;28;20033;-67
2022/08/22 02:39:12;;;;;;;20.17;18.13;;;;;;;20.75;100.00;99521.03;5093363;28;20127;-66
2022/08/22 02:42:05;;;;;;;22.05;19.75;;;;;;;20.75;100.00;99519.16;5109808;28;20028;-67
2022/08/22 02:44:56;;;;;;;24.13;20.85;;;;;;;20.76;100.00;99520.81;5109745;28;20027;-66
2022/08/22 02:47:28;;;;;;;25.38;22.60;;;;;;;20.75;100.00;99519.16;5108944;28;20491;-66
2022/08/22 02:50:07;;;;;;;24.00;20.90;;;;;;;20.74;100.00;99530.25;5109114;28;20019;-66
2022/08/22 02:53:01;;;;;;;26.38;21.02;;;;;;;20.75;100.00;99521.88;5106378;28;20027;-66
2022/08/22 02:55:53;;;;;;;28.70;22.63;;;;;;;20.76;100.00;99523.53;5107862;28;20757;-66
2022/08/22 02:58:53;;;;;;;25.77;21.65;;;;;;;20.76;100.00;99522.72;5107257;28;20480;-68
2022/08/22 03:01:21;;;;;;;28.30;24.20;;;;;;;20.76;100.00;99528.16;5105890;28;20093;-67
2022/08/22 03:03:47;;;;;;;26.30;22.52;;;;;;;20.77;100.00;99525.22;5112726;27;20032;-67
2022/08/22 03:06:57;;;;;;;25.70;21.90;;;;;;;20.77;100.00;99529.81;5107396;28;20760;-68
2022/08/22 03:09:31;;;;;;;29.92;22.77;;;;;;;20.77;100.00;99535.28;5104441;28;20035;-68
2022/08/22 03:12:12;;;;;;;29.45;23.65;;;;;;;20.74;100.00;99535.72;5107517;28;20035;-68
2022/08/22 03:14:46;;;;;;;27.50;24.50;;;;;;;20.72;100.00;99518.72;5107869;28;20372;-68
2022/08/22 03:17:37;;;;;;;31.27;25.42;;;;;;;20.71;100.00;99517.06;5107448;28;20055;-68
2022/08/22 03:20:14;;;;;;;26.95;23.60;;;;;;;20.78;100.00;99537.78;5105065;28;20474;-67
2022/08/22 03:23:01;;;;;;;28.70;24.48;;;;;;;20.78;100.00;99531.50;5107653;28;20054;-68
2022/08/22 03:25:38;;;;;;;29.95;24.88;;;;;;;20.78;100.00;99540.50;5107528;28;20028;-68
2022/08/22 03:28:09;;;;;;;30.17;25.25;;;;;;;20.76;100.00;99539.88;5106832;28;20043;-66
2022/08/22 03:30:43;;;;;;;31.10;26.17;;;;;;;20.77;100.00;99540.72;5106097;28;20016;-66
2022/08/22 03:33:14;;;;;;;;;;;;;;;20.74;100.00;99536.56;5107263;28;20386;-66
2022/08/22 03:35:45;;;;;;;28.80;24.00;;;;;;;20.75;100.00;99526.47;5107997;27;20370;-67
2022/08/22 03:38:37;;;;;;;29.08;23.73;;;;;;;20.74;100.00;99525.66;5104953;28;20047;-66
2022/08/22 03:41:11;;;;;;;31.55;25.27;;;;;;;20.75;100.00;99537.38;5105184;28;20122;-66
2022/08/22 03:43:52;;;;;;;28.23;24.98;;;;;;;20.74;100.00;99533.00;5106718;28;20394;-67
2022/08/22 03:46:36;;;;;;;31.73;26.55;;;;;;;20.73;100.00;99536.78;5105048;28;20027;-67
2022/08/22 03:49:20;;;;;;;31.65;26.23;;;;;;;20.74;100.00;99535.72;5106659;28;20024;-66
2022/08/22 03:52:23;;;;;;;33.22;26.80;;;;;;;20.71;100.00;99542.44;5106957;28;20055;-66
2022/08/22 03:55:30;;;;;;;31.58;25.10;;;;;;;20.73;100.00;99544.94;5105373;28;20106;-66
2022/08/22 03:58:14;;;;;;;31.88;26.38;;;;;;;20.75;100.00;99545.56;5043209;28;20539;-66
2022/08/22 04:01:06;;;;;;;32.90;26.50;;;;;;;20.76;100.00;99539.88;5100244;28;20786;-66
2022/08/22 04:04:02;;;;;;;32.80;26.70;;;;;;;20.76;100.00;99541.78;5098265;28;20070;-66
2022/08/22 04:06:43;;;;;;;32.88;26.60;;;;;;;20.76;100.00;99536.34;5106644;28;20024;-66
2022/08/22 04:09:34;;;;;;;35.40;27.23;;;;;;;20.78;100.00;99545.13;5106741;28;20494;-67
2022/08/22 04:12:12;;;;;;;34.85;25.90;;;;;;;20.77;100.00;99538.84;5104099;28;20367;-67
2022/08/22 04:14:56;;;;;;;31.50;25.42;;;;;;;20.79;100.00;99539.44;5104981;28;20019;-66
2022/08/22 04:17:40;;;;;;;33.03;26.67;;;;;;;20.80;100.00;99529.41;5105121;28;20112;-67
2022/08/22 04:20:15;;;;;;;34.10;27.27;;;;;;;20.81;100.00;99531.06;5106082;28;20483;-67
2022/08/22 04:22:59;;;;;;;32.22;26.60;;;;;;;20.80;100.00;99532.94;5106242;28;20310;-66
2022/08/22 04:25:40;;;;;;;32.30;25.70;;;;;;;20.79;100.00;99538.63;5106489;27;20023;-68
2022/08/22 04:28:22;;;;;;;30.50;25.15;;;;;;;20.78;100.00;99536.94;5105688;28;20055;-68
2022/08/22 04:31:13;;;;;;;32.55;26.02;;;;;;;20.83;100.00;99540.66;5104493;28;20197;-68
2022/08/22 04:33:53;;;;;;;32.65;25.27;;;;;;;20.87;100.00;99546.53;5105624;28;20028;-67
2022/08/22 04:36:25;;;;;;;37.58;24.75;;;;;;;20.86;100.00;99551.16;5105107;28;20032;-68
2022/08/22 04:39:01;;;;;;;32.72;24.00;;;;;;;20.87;100.00;99552.00;5105201;28;20050;-67
2022/08/22 04:41:29;;;;;;;31.30;25.10;;;;;;;20.87;100.00;99555.56;5104926;28;20060;-66
2022/08/22 04:44:35;;;;;;;32.75;24.45;;;;;;;20.89;100.00;99558.06;5105542;28;20047;-67
2022/08/22 04:47:24;;;;;;;29.90;23.80;;;;;;;20.89;100.00;99568.97;5102276;28;20051;-66
2022/08/22 04:50:21;;;;;;;30.15;24.08;;;;;;;20.90;100.00;99573.38;5104431;28;20031;-67
2022/08/22 04:53:24;;;;;;;32.83;21.30;;;;;;;20.91;100.00;99566.84;5096053;28;20406;-66
2022/08/22 04:55:52;;;;;;;30.55;23.52;;;;;;;20.92;100.00;99579.44;5056314;27;20062;-67
2022/08/22 04:58:40;;;;;;;29.05;23.25;;;;;;;20.94;100.00;99577.34;5104910;28;20046;-67
2022/08/22 05:01:05;;;;;;;28.65;24.42;;;;;;;20.94;100.00;99577.34;5105570;28;20028;-67
2022/08/22 05:03:35;;;;;;;28.88;23.58;;;;;;;20.92;100.00;99568.53;5105950;28;20031;-66
2022/08/22 05:06:04;;;;;;;32.83;23.92;;;;;;;20.95;100.00;99579.00;5105770;28;20031;-66
2022/08/22 05:08:33;;;;;;;30.52;24.02;;;;;;;20.94;100.00;99574.63;5105590;28;20026;-67
2022/08/22 05:11:01;;;;;;;30.73;23.50;;;;;;;20.97;100.00;99580.47;5104470;28;20015;-67
2022/08/22 05:13:32;;;;;;;27.85;22.65;;;;;;;20.96;100.00;99580.69;5105194;28;20489;-67
2022/08/22 05:16:04;;;;;;;30.08;23.20;;;;;;;20.94;100.00;99586.38;5099070;28;20026;-67
2022/08/22 05:18:37;;;;;;;29.88;22.77;;;;;;;20.93;100.00;99583.84;5102053;28;20485;-67
2022/08/22 05:21:07;;;;;;;30.30;22.80;;;;;;;20.94;100.00;99589.09;5102369;28;20034;-67
2022/08/22 05:24:06;;;;;;;30.35;23.20;;;;;;;20.97;100.00;99590.53;5101501;28;20035;-67
2022/08/22 05:26:45;;;;;;;32.25;23.27;;;;;;;20.98;100.00;99589.47;5093984;28;20466;-67
2022/08/22 05:29:15;;;;;;;30.58;23.55;;;;;;;20.95;100.00;99584.47;5132042;27;20085;-68
2022/08/22 05:32:06;;;;;;;30.17;23.02;;;;;;;20.99;100.00;99583.00;5102867;28;20856;-68
2022/08/22 05:34:37;;;;;;;29.55;22.33;;;;;;;21.02;100.00;99588.00;5102503;28;20031;-68
2022/08/22 05:37:09;;;;;;;29.23;22.92;;;;;;;21.07;100.00;99591.75;5105667;28;20098;-67
2022/08/22 05:39:40;;;;;;;30.08;23.67;;;;;;;21.11;100.00;99592.13;5103129;28;20055;-68
2022/08/22 05:42:12;;;;;;;32.58;23.52;;;;;;;21.13;100.00;99596.31;5102215;28;20104;-68
2022/08/22 05:44:38;;;;;;;31.52;23.77;;;;;;;21.13;100.00;99599.06;5102772;28;20024;-67
2022/08/22 05:47:21;;;;;;;34.33;26.42;;;;;;;21.16;100.00;99590.44;5105023;28;20034;-67
2022/08/22 05:49:53;;;;;;;33.38;24.85;;;;;;;21.18;100.00;99601.13;5108687;27;20401;-67
2022/08/22 05:52:50;;;;;;;31.15;24.42;;;;;;;21.19;100.00;99600.91;5108896;27;20024;-68
2022/08/22 05:55:31;;;;;;;29.55;24.17;;;;;;;21.22;100.00;99605.06;5106488;28;20043;-68
2022/08/22 05:58:26;;;;;;;32.30;24.98;;;;;;;21.24;100.00;99603.78;5108809;27;20079;-68
2022/08/22 06:01:05;;;;;;;29.73;23.85;;;;;;;21.23;100.00;99598.56;5080875;28;20043;-66
2022/08/22 06:03:37;;;;;;;30.63;23.73;;;;;;;21.23;100.00;99587.66;5108099;28;20107;-67
2022/08/22 06:06:12;;;;;;;28.20;22.50;;;;;;;21.33;100.00;99598.91;5108286;28;20030;-66
2022/08/22 06:08:45;;;;;;;34.00;22.98;;;;;;;21.36;100.00;99596.56;5108673;28;20015;-66
2022/08/22 06:11:24;;;;;;;30.60;23.92;;;;;;;21.33;100.00;99588.84;5108476;28;20465;-66
2022/08/22 06:13:56;;;;;;;31.55;24.30;;;;;;;21.39;100.00;99589.84;5108885;28;20027;-67
2022/08/22 06:16:45;;;;;;;29.00;23.33;;;;;;;21.49;100.00;99598.34;5108976;28;20025;-66
2022/08/22 06:19:15;;;;;;;32.70;23.10;;;;;;;21.51;100.00;99601.72;5106310;28;20031;-66
2022/08/22 06:21:43;;;;;;;27.25;22.52;;;;;;;21.56;100.00;99599.13;5107850;28;20038;-66
2022/08/22 06:24:17;;;;;;;30.25;22.63;;;;;;;21.58;100.00;99599.75;5107132;27;20066;-66
2022/08/22 06:26:45;;;;;;;30.75;22.95;;;;;;;21.59;100.00;99601.41;5107995;28;20041;-66
2022/08/22 06:29:28;;;;;;;28.77;23.45;;;;;;;21.60;100.00;99597.66;5107345;28;20040;-66
2022/08/22 06:31:55;;;;;;;25.98;21.55;;;;;;;21.65;100.00;99606.84;5107929;28;20027;-66
2022/08/22 06:34:27;;;;;;;23.80;19.73;;;;;;;21.71;100.00;99600.50;5107966;27;20019;-65
2022/08/22 06:36:56;;;;;;;27.02;20.52;;;;;;;21.80;100.00;99607.34;5108448;28;20027;-65
2022/08/22 06:39:37;;;;;;;25.10;19.05;;;;;;;21.88;100.00;99609.81;5105562;28;20047;-65
2022/08/22 06:42:09;;;;;;;22.75;19.02;;;;;;;21.91;100.00;99611.25;5107181;28;20027;-65
2022/08/22 06:44:37;;;;;;;24.58;19.13;;;;;;;21.93;100.00;99615.41;5105823;28;20080;-65
2022/08/22 06:47:07;;;;;;;26.05;19.35;;;;;;;21.94;100.00;99621.72;5107400;28;20306;-65
2022/08/22 06:49:34;;;;;;;26.00;19.42;;;;;;;21.95;100.00;99616.03;5111392;27;20016;-65
2022/08/22 06:52:05;;;;;;;25.25;18.63;;;;;;;21.95;100.00;99626.13;5107394;28;20475;-66
2022/08/22 06:54:35;;;;;;;28.65;20.27;;;;;;;21.94;100.00;99622.56;5107537;27;20034;-66
2022/08/22 06:57:03;;;;;;;25.95;18.95;;;;;;;21.95;100.00;99621.50;5107709;28;20035;-65
2022/08/22 06:59:34;;;;;;;23.63;19.38;;;;;;;21.92;100.00;99621.94;5105863;28;20034;-65
2022/08/22 07:02:25;;;;;;;27.83;20.23;;;;;;;21.95;100.00;99626.97;5107210;28;20023;-65
2022/08/22 07:04:51;;;;;;;24.98;21.25;;;;;;;21.94;100.00;99629.91;5103625;28;20057;-65
2022/08/22 07:07:19;;;;;;;24.83;20.40;;;;;;;21.93;100.00;99640.00;5105233;28;20059;-65
2022/08/22 07:09:49;;;;;;;25.65;20.05;;;;;;;21.95;100.00;99637.03;5108073;28;20035;-65
2022/08/22 07:12:19;;;;;;;29.85;19.77;;;;;;;21.94;100.00;99638.09;5105923;28;20024;-65
2022/08/22 07:14:48;;;;;;;27.83;19.10;;;;;;;21.90;100.00;99625.97;5107470;28;20610;-65
2022/08/22 07:17:22;;;;;;;28.60;20.05;;;;;;;21.97;100.00;99643.13;5106865;28;20349;-65
2022/08/22 07:20:13;;;;;;;25.48;19.50;;;;;;;21.96;100.00;99636.81;5107206;28;20525;-65
2022/08/22 07:22:39;;;;;;;23.55;18.27;;;;;;;21.98;100.00;99644.78;5106879;28;20474;-65
2022/08/22 07:25:13;;;;;;;24.27;18.38;;;;;;;21.99;100.00;99639.09;5106949;28;20053;-65
2022/08/22 07:28:00;;;;;;;27.73;19.50;;;;;;;21.99;100.00;99636.38;5106663;28;20499;-65
2022/08/22 07:30:39;;;;;;;27.45;19.63;;;;;;;22.03;100.00;99642.22;5107319;28;20066;-64
2022/08/22 07:33:14;;;;;;;22.23;18.33;;;;;;;22.02;100.00;99625.00;5105333;27;20027;-65
2022/08/22 07:35:45;;;;;;;20.63;17.73;;;;;;;22.08;100.00;99639.66;5102907;28;20054;-65
2022/08/22 07:38:28;;;;;;;26.38;18.58;;;;;;;22.10;100.00;99635.66;5108886;27;20725;-64
2022/08/22 07:41:20;;;;;;;27.55;20.90;;;;;;;22.10;100.00;99637.53;5101998;28;20390;-65
2022/08/22 07:43:50;;;;;;;27.45;19.33;;;;;;;22.13;100.00;99637.09;5106651;27;20040;-64
2022/08/22 07:46:34;;;;;;;23.63;17.27;;;;;;;22.08;100.00;99623.25;5104970;28;20131;-64
2022/08/22 07:49:12;;;;;;;22.70;17.13;;;;;;;22.18;100.00;99638.06;5103742;28;20055;-64
2022/08/22 07:51:45;;;;;;;23.52;17.92;;;;;;;22.16;100.00;99633.91;5102848;28;20036;-64
2022/08/22 07:54:15;;;;;;;23.40;18.30;;;;;;;22.23;100.00;99645.59;5105685;28;20051;-63
2022/08/22 07:56:50;;;;;;;30.38;17.92;;;;;;;22.17;100.00;99627.38;5105687;28;20039;-63
2022/08/22 07:59:20;;;;;;;19.95;15.95;;;;;;;22.24;100.00;99645.38;5104994;28;20088;-64
2022/08/22 08:01:50;;;;;;;24.10;18.00;;;;;;;22.26;100.00;99647.88;5104097;28;20034;-64
2022/08/22 08:04:23;;;;;;;23.33;17.65;;;;;;;22.24;100.00;99648.09;5105358;28;20126;-65
2022/08/22 08:06:56;;;;;;;25.63;18.90;;;;;;;22.29;100.00;99658.38;5107381;27;20388;-64
2022/08/22 08:09:25;;;;;;;27.42;20.73;;;;;;;22.27;100.00;99658.59;5103317;28;20429;-64
2022/08/22 08:11:52;;;;;;;24.73;20.48;;;;;;;22.27;100.00;99655.84;5105583;28;20023;-64
2022/08/22 08:14:20;;;;;;;21.42;18.23;;;;;;;22.32;100.00;99664.19;5105297;28;20031;-64
2022/08/22 08:16:49;;;;;;;24.13;19.15;;;;;;;22.33;100.00;99665.88;5103854;28;20867;-65
2022/08/22 08:19:17;;;;;;;24.60;18.77;;;;;;;22.35;100.00;99668.41;5107091;27;20054;-65
2022/08/22 08:21:52;;;;;;;21.55;17.73;;;;;;;22.35;100.00;99673.84;5105172;28;20035;-65
2022/08/22 08:24:24;;;;;;;27.15;19.20;;;;;;;22.35;100.00;99668.41;5103314;27;20160;-65
2022/08/22 08:29:57;;;;;;;24.20;18.65;;;;;;;22.33;100.00;99673.25;5104411;28;20041;-65
2022/08/22 08:32:26;;;;;;;19.67;17.42;;;;;;;22.31;100.00;99668.00;5104740;27;20051;-65
2022/08/22 08:34:53;;;;;;;21.08;16.83;;;;;;;22.34;100.00;99666.69;5103803;28;20363;-65
2022/08/22 08:37:55;;;;;;;24.10;16.80;;;;;;;22.31;100.00;99668.00;5104846;28;20054;-65
2022/08/22 08:40:52;;;;;;;24.63;18.52;;;;;;;22.33;100.00;99668.63;5061754;28;20743;-65
2022/08/22 08:43:27;;;;;;;30.27;20.30;;;;;;;22.38;100.00;99676.97;5105100;28;20069;-65
2022/08/22 08:46:07;;;;;;;22.83;18.10;;;;;;;22.40;100.00;99678.66;5103746;28;20599;-64
2022/08/22 08:48:51;;;;;;;23.05;17.75;;;;;;;22.42;100.00;99679.25;5101179;28;20094;-65
2022/08/22 08:51:38;;;;;;;23.95;18.88;;;;;;;22.45;100.00;99681.53;5102594;28;20428;-65
2022/08/22 08:54:22;;;;;;;22.92;17.35;;;;;;;22.45;100.00;99678.78;5103706;28;20038;-64
2022/08/22 08:57:09;;;;;;;27.38;19.25;;;;;;;22.46;100.00;99681.28;5103785;28;20510;-65
2022/08/22 08:59:59;;;;;;;23.63;17.95;;;;;;;22.44;100.00;99677.94;5103060;28;20093;-65
2022/08/22 09:02:37;;;;;;;27.50;18.75;;;;;;;22.50;100.00;99682.53;5102275;28;20039;-64
2022/08/22 09:05:23;;;;;;;25.23;18.95;;;;;;;22.49;100.00;99674.53;5102799;28;20036;-65
2022/08/22 09:07:48;;;;;;;27.80;19.48;;;;;;;22.52;100.00;99690.50;5101119;28;20102;-65
2022/08/22 09:10:32;;;;;;;26.25;18.85;;;;;;;22.53;100.00;99690.28;5102050;28;20484;-64
2022/08/22 09:13:32;;;;;;;23.95;16.95;;;;;;;22.52;100.00;99679.59;5102131;28;20059;-65
2022/08/22 09:16:03;;;;;;;23.33;18.30;;;;;;;22.57;100.00;99686.03;5087759;28;20048;-64
2022/08/22 09:18:54;;;;;;;23.08;18.70;;;;;;;22.60;100.00;99682.84;5104122;28;20817;-64
2022/08/22 09:21:44;;;;;;;26.60;18.85;;;;;;;22.62;100.00;99686.19;5108132;28;20380;-64
2022/08/22 09:24:40;;;;;;;18.40;15.52;;;;;;;22.65;100.00;99674.81;5110729;27;20027;-65
2022/08/22 09:27:11;;;;;;;20.50;16.30;;;;;;;22.66;100.00;99675.66;5103314;28;20030;-64
2022/08/22 09:29:43;;;;;;;18.67;13.60;;;;;;;22.76;100.00;99678.69;5109328;28;20027;-65
2022/08/22 09:32:27;;;;;;;17.88;13.88;;;;;;;22.81;100.00;99679.69;5110358;27;20487;-65
2022/08/22 09:35:11;;;;;;;15.23;12.55;;;;;;;22.86;100.00;99679.81;5105568;28;20028;-65
2022/08/22 09:38:07;;;;;;;19.83;13.93;;;;;;;22.90;100.00;99683.78;5113231;27;20110;-65
2022/08/22 09:41:20;;;;;;;16.50;12.45;;;;;;;22.93;100.00;99677.84;5111351;27;20743;-66
2022/08/22 09:43:56;;;;;;;15.43;12.43;;;;;;;22.98;100.00;99686.19;5031766;28;20510;-65
2022/08/22 09:46:28;;;;;;;20.80;13.35;;;;;;;23.03;99.54;99678.13;5109685;28;20368;-66
2022/08/22 09:49:02;;;;;;;20.38;13.50;;;;;;;23.01;99.38;99677.53;5110286;28;20051;-66
2022/08/22 09:52:00;;;;;;;16.80;12.00;;;;;;;23.02;98.64;99675.63;5109328;28;20035;-65
2022/08/22 09:54:41;;;;;;;18.30;12.40;;;;;;;23.08;98.63;99686.47;5107974;28;20475;-65
2022/08/22 09:57:48;;;;;;;15.18;11.30;;;;;;;23.14;98.34;99693.75;5109838;28;20090;-65
2022/08/22 10:00:18;;;;;;;17.75;12.18;;;;;;;23.08;97.38;99682.91;5108092;28;20126;-64
2022/08/22 10:03:06;;;;;;;16.17;12.30;;;;;;;23.16;97.11;99686.16;5093140;28;20031;-65
2022/08/22 10:05:43;;;;;;;15.77;12.38;;;;;;;23.15;97.31;99697.34;5108677;28;20031;-65
2022/08/22 10:08:17;;;;;;;15.10;11.70;;;;;;;23.13;97.65;99691.25;5108278;28;20027;-65
2022/08/22 10:11:04;;;;;;;17.60;12.75;;;;;;;23.10;97.53;99688.97;5114617;27;20039;-65
2022/08/22 10:13:54;;;;;;;17.40;13.32;;;;;;;23.09;97.20;99685.44;5107495;28;20053;-66
2022/08/22 10:16:41;;;;;;;16.52;11.30;;;;;;;23.10;97.53;99691.72;5109411;28;20020;-65
2022/08/22 10:19:23;;;;;;;15.15;12.57;;;;;;;23.09;98.03;99682.69;5109408;28;20386;-65
2022/08/22 10:22:17;;;;;;;14.80;11.32;;;;;;;23.10;98.67;99692.56;5107998;28;20455;-65
2022/08/22 10:25:24;;;;;;;17.03;12.87;;;;;;;23.04;98.70;99682.53;5108874;28;20482;-65
2022/08/22 10:27:55;;;;;;;17.48;12.90;;;;;;;23.08;99.59;99697.41;5025783;28;20033;-64
2022/08/22 10:30:22;;;;;;;15.60;12.50;;;;;;;23.07;99.96;99687.53;5026095;28;20021;-66
2022/08/22 10:33:12;;;;;;;17.52;12.85;;;;;;;23.07;100.00;99686.69;5067354;28;20035;-65
2022/08/22 10:35:50;;;;;;;16.83;12.15;;;;;;;23.07;100.00;99690.28;5099555;28;20028;-66
2022/08/22 10:38:37;;;;;;;13.77;10.77;;;;;;;23.11;100.00;99691.47;5115509;27;20209;-66
2022/08/22 10:41:26;;;;;;;16.75;11.35;;;;;;;23.11;100.00;99688.75;5101300;28;20502;-67
2022/08/22 10:44:01;;;;;;;15.00;11.95;;;;;;;23.13;100.00;99689.38;5107931;28;20023;-66
2022/08/22 10:46:38;;;;;;;20.13;12.60;;;;;;;23.11;100.00;99688.75;5118921;27;20444;-66
2022/08/22 10:49:22;;;;;;;11.63;10.27;;;;;;;23.18;100.00;99702.34;5106731;28;20458;-66
2022/08/22 10:51:52;;;;;;;;;;;;;;;23.14;100.00;99707.44;5110900;27;20561;-66
2022/08/22 10:54:23;;;;;;;13.60;10.55;;;;;;;23.16;100.00;99699.84;5123448;27;19911;-67
2022/08/22 10:57:13;;;;;;;15.27;11.70;;;;;;;23.13;100.00;99697.56;5092464;28;20066;-66
2022/08/22 10:59:54;;;;;;;14.50;10.90;;;;;;;23.13;100.00;99700.31;5108401;28;20545;-66
2022/08/22 11:02:44;;;;;;;20.33;13.52;;;;;;;23.12;100.00;99704.09;5107918;28;20039;-66
2022/08/22 11:05:23;;;;;;;15.00;11.20;;;;;;;23.10;100.00;99710.88;5108263;28;20019;-66
2022/08/22 11:08:03;;;;;;;17.58;12.63;;;;;;;23.10;100.00;99698.03;5108513;28;20020;-66
2022/08/22 11:10:43;;;;;;;14.90;11.60;;;;;;;23.12;100.00;99709.56;5107947;28;20427;-66
2022/08/22 11:13:25;;;;;;;14.52;11.48;;;;;;;23.14;100.00;99706.59;5107896;28;20394;-66
2022/08/22 11:16:27;;;;;;;17.08;11.60;;;;;;;23.13;100.00;99713.16;5108376;28;20061;-66
2022/08/22 11:18:58;;;;;;;15.35;11.77;;;;;;;23.09;100.00;99712.78;5093058;28;20028;-65
2022/08/22 11:21:30;;;;;;;16.05;12.65;;;;;;;23.08;100.00;99711.09;5107746;28;20042;-66
2022/08/22 11:24:30;;;;;;;21.73;14.82;;;;;;;23.05;100.00;99714.28;5121119;27;20043;-67
2022/08/22 11:26:56;;;;;;;17.95;13.23;;;;;;;23.07;100.00;99712.16;5064240;28;20118;-66
2022/08/22 11:29:40;;;;;;;16.90;13.98;;;;;;;23.09;100.00;99709.19;5108037;28;20144;-68
2022/08/22 11:32:14;;;;;;;23.77;14.25;;;;;;;23.14;100.00;99706.59;5111276;28;20091;-67
2022/08/22 11:34:50;;;;;;;14.38;12.20;;;;;;;23.14;100.00;99698.38;5108009;28;20102;-68
2022/08/22 11:37:53;;;;;;;13.15;11.80;;;;;;;23.18;100.00;99700.44;5107516;27;20612;-68
2022/08/22 11:40:29;;;;;;;15.38;12.38;;;;;;;23.18;100.00;99694.97;5111959;28;20085;-68
2022/08/22 11:43:13;;;;;;;14.05;11.15;;;;;;;23.25;100.00;99703.13;5108019;28;20023;-68
2022/08/22 11:45:44;;;;;;;13.93;11.18;;;;;;;23.29;100.00;99705.19;5108024;28;20732;-67
2022/08/22 11:48:13;;;;;;;15.93;12.45;;;;;;;23.32;100.00;99701.13;5107156;28;20382;-68
2022/08/22 11:50:48;;;;;;;15.40;12.30;;;;;;;23.33;100.00;99700.91;5108108;28;20383;-68
2022/08/22 11:53:38;;;;;;;17.40;11.32;;;;;;;23.35;100.00;99701.53;5107525;28;20573;-67
2022/08/22 11:56:31;;;;;;;14.07;11.68;;;;;;;23.35;100.00;99693.31;5107548;28;20036;-67
2022/08/22 11:59:15;;;;;;;12.93;11.52;;;;;;;23.38;100.00;99701.03;5092322;28;20024;-67
2022/08/22 12:01:53;;;;;;;18.00;11.82;;;;;;;23.38;100.00;99694.75;5107278;28;20677;-67
2022/08/22 12:04:31;;;;;;;15.32;12.52;;;;;;;23.38;100.00;99702.94;5107029;28;20092;-67
2022/08/22 12:07:27;;;;;;;14.85;11.10;;;;;;;23.38;100.00;99698.28;5107595;27;20019;-66
2022/08/22 12:10:15;;;;;;;14.70;11.63;;;;;;;23.38;100.00;99695.56;5111669;27;20035;-67
2022/08/22 12:12:52;;;;;;;16.77;10.98;;;;;;;23.40;99.90;99692.59;5102385;27;20108;-67
2022/08/22 12:15:22;;;;;;;13.60;11.65;;;;;;;23.38;99.98;99692.81;5102420;27;20128;-67